sensor_id;sensor_type;location;lat;lon;timestamp;pressure;altitude;pressure_sealevel;temperature;humidity
68301;BME280;55146;47.468;18.806;2023-06-22T00:01:47;100249.88;;;22.89;89.22
68301;BME280;55146;47.468;18.806;2023-06-22T00:04:12;100241.78;;;22.88;89.64
68301;BME280;55146;47.468;18.806;2023-06-22T00:06:38;100250.66;;;22.90;89.90
68301;BME280;55146;47.468;18.806;2023-06-22T00:09:03;100258.72;;;22.91;90.48
68301;BME280;55146;47.468;18.806;2023-06-22T00:11:28;100255.13;;;22.79;91.57
68301;BME280;55146;47.468;18.806;2023-06-22T00:13:54;100247.53;;;22.79;91.64
68301;BME280;55146;47.468;18.806;2023-06-22T00:16:19;100251.28;;;22.83;91.57
68301;BME280;55146;47.468;18.806;2023-06-22T00:18:45;100245.88;;;22.78;91.19
68301;BME280;55146;47.468;18.806;2023-06-22T00:21:12;100238.16;;;22.63;91.35
68301;BME280;55146;47.468;18.806;2023-06-22T00:23:38;100244.69;;;22.67;91.44
68301;BME280;55146;47.468;18.806;2023-06-22T00:26:03;100249.50;;;22.67;91.18
68301;BME280;55146;47.468;18.806;2023-06-22T00:28:28;100256.25;;;22.66;91.30
68301;BME280;55146;47.468;18.806;2023-06-22T00:30:54;100256.41;;;22.69;91.37
68301;BME280;55146;47.468;18.806;2023-06-22T00:33:19;100251.13;;;22.68;91.40
68301;BME280;55146;47.468;18.806;2023-06-22T00:35:45;100252.78;;;22.69;91.57
68301;BME280;55146;47.468;18.806;2023-06-22T00:38:11;100249.63;;;22.70;91.27
68301;BME280;55146;47.468;18.806;2023-06-22T00:40:36;100249.25;;;22.72;90.71
68301;BME280;55146;47.468;18.806;2023-06-22T00:43:02;100259.81;;;22.75;89.33
68301;BME280;55146;47.468;18.806;2023-06-22T00:45:28;100252.06;;;22.72;88.68
68301;BME280;55146;47.468;18.806;2023-06-22T00:47:58;100249.97;;;22.69;89.00
68301;BME280;55146;47.468;18.806;2023-06-22T00:50:26;100244.69;;;22.67;89.09
68301;BME280;55146;47.468;18.806;2023-06-22T00:52:53;100246.59;;;22.63;88.38
68301;BME280;55146;47.468;18.806;2023-06-22T00:55:22;100246.09;;;22.61;88.55
68301;BME280;55146;47.468;18.806;2023-06-22T00:57:48;100250.06;;;22.60;88.70
68301;BME280;55146;47.468;18.806;2023-06-22T01:00:15;100247.28;;;22.60;88.80
68301;BME280;55146;47.468;18.806;2023-06-22T01:02:45;100234.41;;;22.59;88.97
68301;BME280;55146;47.468;18.806;2023-06-22T01:05:15;100237.13;;;22.55;89.20
68301;BME280;55146;47.468;18.806;2023-06-22T01:07:58;100232.31;;;22.56;89.31
68301;BME280;55146;47.468;18.806;2023-06-22T01:10:46;100229.88;;;22.54;89.21
68301;BME280;55146;47.468;18.806;2023-06-22T01:13:42;100236.19;;;22.51;89.46
68301;BME280;55146;47.468;18.806;2023-06-22T01:16:14;100234.06;;;22.48;89.70
68301;BME280;55146;47.468;18.806;2023-06-22T01:18:43;100221.59;;;22.46;89.83
68301;BME280;55146;47.468;18.806;2023-06-22T01:21:12;100227.41;;;22.41;90.17
68301;BME280;55146;47.468;18.806;2023-06-22T01:29:20;100229.53;;;22.32;90.40
68301;BME280;55146;47.468;18.806;2023-06-22T01:31:47;100219.38;;;22.27;90.50
68301;BME280;55146;47.468;18.806;2023-06-22T01:34:14;100227.28;;;22.25;90.71
68301;BME280;55146;47.468;18.806;2023-06-22T01:36:41;100234.88;;;22.25;90.81
68301;BME280;55146;47.468;18.806;2023-06-22T01:39:07;100224.50;;;22.25;90.88
68301;BME280;55146;47.468;18.806;2023-06-22T01:41:36;100220.41;;;22.23;91.19
68301;BME280;55146;47.468;18.806;2023-06-22T01:44:05;100219.47;;;22.18;91.22
68301;BME280;55146;47.468;18.806;2023-06-22T01:46:32;100230.56;;;22.15;91.30
68301;BME280;55146;47.468;18.806;2023-06-22T01:48:58;100235.34;;;22.14;91.42
68301;BME280;55146;47.468;18.806;2023-06-22T01:51:24;100241.78;;;22.15;91.29
68301;BME280;55146;47.468;18.806;2023-06-22T01:53:49;100238.50;;;22.13;91.09
68301;BME280;55146;47.468;18.806;2023-06-22T01:56:17;100236.38;;;22.10;91.28
68301;BME280;55146;47.468;18.806;2023-06-22T01:59:09;100242.22;;;22.05;91.45
68301;BME280;55146;47.468;18.806;2023-06-22T02:04:56;100241.28;;;22.01;91.75
68301;BME280;55146;47.468;18.806;2023-06-22T02:07:23;100240.81;;;21.99;91.78
68301;BME280;55146;47.468;18.806;2023-06-22T02:09:52;100244.31;;;21.96;91.95
68301;BME280;55146;47.468;18.806;2023-06-22T02:12:23;100247.75;;;21.93;92.12
68301;BME280;55146;47.468;18.806;2023-06-22T02:14:50;100247.31;;;21.91;92.29
68301;BME280;55146;47.468;18.806;2023-06-22T02:17:17;100256.50;;;21.91;92.32
68301;BME280;55146;47.468;18.806;2023-06-22T02:19:43;100253.38;;;21.93;92.29
68301;BME280;55146;47.468;18.806;2023-06-22T02:22:08;100259.31;;;21.91;92.24
68301;BME280;55146;47.468;18.806;2023-06-22T02:24:34;100257.22;;;21.88;92.26
68301;BME280;55146;47.468;18.806;2023-06-22T02:27:00;100260.00;;;21.88;92.14
68301;BME280;55146;47.468;18.806;2023-06-22T02:29:27;100262.47;;;21.90;91.94
68301;BME280;55146;47.468;18.806;2023-06-22T02:31:53;100276.00;;;21.88;91.84
68301;BME280;55146;47.468;18.806;2023-06-22T02:34:18;100276.34;;;21.86;91.52
68301;BME280;55146;47.468;18.806;2023-06-22T02:36:48;100271.28;;;21.79;91.21
68301;BME280;55146;47.468;18.806;2023-06-22T02:39:25;100272.00;;;21.76;91.23
68301;BME280;55146;47.468;18.806;2023-06-22T02:41:52;100279.91;;;21.74;90.90
68301;BME280;55146;47.468;18.806;2023-06-22T02:44:18;100280.97;;;21.70;90.76
68301;BME280;55146;47.468;18.806;2023-06-22T02:46:45;100298.91;;;21.69;90.94
68301;BME280;55146;47.468;18.806;2023-06-22T02:49:11;100302.88;;;21.68;91.11
68301;BME280;55146;47.468;18.806;2023-06-22T02:51:38;100296.34;;;21.64;91.11
68301;BME280;55146;47.468;18.806;2023-06-22T02:54:05;100292.59;;;21.60;91.09
68301;BME280;55146;47.468;18.806;2023-06-22T02:56:30;100277.97;;;21.54;91.26
68301;BME280;55146;47.468;18.806;2023-06-22T03:01:29;100273.88;;;21.52;90.80
68301;BME280;55146;47.468;18.806;2023-06-22T03:03:56;100275.88;;;21.51;90.77
68301;BME280;55146;47.468;18.806;2023-06-22T03:06:21;100275.03;;;21.51;90.54
68301;BME280;55146;47.468;18.806;2023-06-22T03:08:58;100272.94;;;21.48;90.33
68301;BME280;55146;47.468;18.806;2023-06-22T03:11:24;100273.94;;;21.43;90.73
68301;BME280;55146;47.468;18.806;2023-06-22T03:13:49;100273.12;;;21.43;90.84
68301;BME280;55146;47.468;18.806;2023-06-22T03:16:17;100272.66;;;21.41;91.03
68301;BME280;55146;47.468;18.806;2023-06-22T03:18:43;100269.38;;;21.38;91.16
68301;BME280;55146;47.468;18.806;2023-06-22T03:21:08;100264.28;;;21.41;91.22
68301;BME280;55146;47.468;18.806;2023-06-22T03:23:34;100261.47;;;21.41;91.16
68301;BME280;55146;47.468;18.806;2023-06-22T03:25:59;100263.13;;;21.42;91.31
68301;BME280;55146;47.468;18.806;2023-06-22T03:28:24;100265.91;;;21.42;91.52
68301;BME280;55146;47.468;18.806;2023-06-22T03:30:50;100268.84;;;21.45;91.83
68301;BME280;55146;47.468;18.806;2023-06-22T03:33:15;100265.56;;;21.43;92.02
68301;BME280;55146;47.468;18.806;2023-06-22T03:35:40;100263.91;;;21.42;92.20
68301;BME280;55146;47.468;18.806;2023-06-22T03:38:06;100270.81;;;21.45;92.10
68301;BME280;55146;47.468;18.806;2023-06-22T03:40:31;100261.25;;;21.46;92.17
68301;BME280;55146;47.468;18.806;2023-06-22T03:42:56;100268.13;;;21.48;92.15
68301;BME280;55146;47.468;18.806;2023-06-22T03:45:22;100263.03;;;21.50;91.93
68301;BME280;55146;47.468;18.806;2023-06-22T03:47:47;100246.94;;;21.47;92.33
68301;BME280;55146;47.468;18.806;2023-06-22T03:50:12;100259.72;;;21.48;92.35
68301;BME280;55146;47.468;18.806;2023-06-22T03:52:40;100259.41;;;21.50;92.68
68301;BME280;55146;47.468;18.806;2023-06-22T03:57:31;100261.16;;;21.54;92.84
68301;BME280;55146;47.468;18.806;2023-06-22T03:59:57;100267.72;;;21.58;92.91
68301;BME280;55146;47.468;18.806;2023-06-22T04:02:23;100256.19;;;21.60;92.71
68301;BME280;55146;47.468;18.806;2023-06-22T04:04:48;100263.41;;;21.61;92.81
68301;BME280;55146;47.468;18.806;2023-06-22T04:07:14;100255.38;;;21.59;93.07
68301;BME280;55146;47.468;18.806;2023-06-22T04:09:39;100257.47;;;21.62;93.45
68301;BME280;55146;47.468;18.806;2023-06-22T04:12:05;100260.75;;;21.64;93.58
68301;BME280;55146;47.468;18.806;2023-06-22T04:14:30;100261.22;;;21.66;93.47
68301;BME280;55146;47.468;18.806;2023-06-22T04:16:57;100255.75;;;21.70;93.61
68301;BME280;55146;47.468;18.806;2023-06-22T04:19:23;100251.09;;;21.74;93.68
68301;BME280;55146;47.468;18.806;2023-06-22T04:21:48;100263.44;;;21.73;93.86
68301;BME280;55146;47.468;18.806;2023-06-22T04:24:14;100252.25;;;21.73;94.15
68301;BME280;55146;47.468;18.806;2023-06-22T04:26:39;100257.66;;;21.78;94.38
68301;BME280;55146;47.468;18.806;2023-06-22T04:29:06;100261.41;;;21.82;94.75
68301;BME280;55146;47.468;18.806;2023-06-22T04:31:34;100265.84;;;21.83;95.00
68301;BME280;55146;47.468;18.806;2023-06-22T04:34:03;100268.75;;;21.87;94.99
68301;BME280;55146;47.468;18.806;2023-06-22T04:36:35;100282.09;;;21.90;94.92
68301;BME280;55146;47.468;18.806;2023-06-22T04:39:09;100287.69;;;21.90;94.96
68301;BME280;55146;47.468;18.806;2023-06-22T04:41:39;100285.34;;;21.92;95.34
68301;BME280;55146;47.468;18.806;2023-06-22T04:44:15;100283.72;;;21.91;95.18
68301;BME280;55146;47.468;18.806;2023-06-22T04:46:58;100292.91;;;21.91;95.41
68301;BME280;55146;47.468;18.806;2023-06-22T04:49:29;100295.03;;;21.94;95.55
68301;BME280;55146;47.468;18.806;2023-06-22T04:52:06;100293.22;;;21.98;95.34
68301;BME280;55146;47.468;18.806;2023-06-22T04:54:32;100294.19;;;22.02;94.91
68301;BME280;55146;47.468;18.806;2023-06-22T04:57:02;100294.28;;;22.06;94.59
68301;BME280;55146;47.468;18.806;2023-06-22T04:59:29;100293.12;;;22.07;94.36
68301;BME280;55146;47.468;18.806;2023-06-22T05:01:59;100296.75;;;22.07;94.61
68301;BME280;55146;47.468;18.806;2023-06-22T05:04:26;100293.94;;;22.07;94.91
68301;BME280;55146;47.468;18.806;2023-06-22T05:06:53;100305.66;;;22.09;95.09
68301;BME280;55146;47.468;18.806;2023-06-22T05:09:19;100315.22;;;22.08;95.21
68301;BME280;55146;47.468;18.806;2023-06-22T05:11:45;100311.09;;;22.06;95.71
68301;BME280;55146;47.468;18.806;2023-06-22T05:14:11;100316.38;;;22.07;96.40
68301;BME280;55146;47.468;18.806;2023-06-22T05:16:37;100324.56;;;22.12;96.39
68301;BME280;55146;47.468;18.806;2023-06-22T05:19:02;100326.78;;;22.19;95.73
68301;BME280;55146;47.468;18.806;2023-06-22T05:21:29;100327.38;;;22.25;95.47
68301;BME280;55146;47.468;18.806;2023-06-22T05:23:55;100324.34;;;22.30;95.07
68301;BME280;55146;47.468;18.806;2023-06-22T05:26:25;100327.75;;;22.35;94.63
68301;BME280;55146;47.468;18.806;2023-06-22T05:28:50;100330.34;;;22.40;93.87
68301;BME280;55146;47.468;18.806;2023-06-22T05:31:16;100340.75;;;22.40;93.88
68301;BME280;55146;47.468;18.806;2023-06-22T05:33:43;100342.16;;;22.46;94.91
68301;BME280;55146;47.468;18.806;2023-06-22T05:36:09;100355.81;;;22.47;94.24
68301;BME280;55146;47.468;18.806;2023-06-22T05:38:36;100344.84;;;22.54;94.37
68301;BME280;55146;47.468;18.806;2023-06-22T05:41:01;100351.84;;;22.60;94.91
68301;BME280;55146;47.468;18.806;2023-06-22T05:43:27;100344.63;;;22.72;95.10
68301;BME280;55146;47.468;18.806;2023-06-22T05:45:52;100348.87;;;22.78;91.91
68301;BME280;55146;47.468;18.806;2023-06-22T05:48:18;100350.16;;;22.80;92.31
68301;BME280;55146;47.468;18.806;2023-06-22T05:50:43;100353.44;;;22.82;92.16
68301;BME280;55146;47.468;18.806;2023-06-22T05:53:08;100357.28;;;22.90;93.39
68301;BME280;55146;47.468;18.806;2023-06-22T05:55:34;100358.81;;;22.99;90.37
68301;BME280;55146;47.468;18.806;2023-06-22T05:57:59;100366.53;;;23.03;89.68
68301;BME280;55146;47.468;18.806;2023-06-22T06:00:24;100352.84;;;23.13;89.78
68301;BME280;55146;47.468;18.806;2023-06-22T06:02:50;100357.38;;;23.30;92.06
68301;BME280;55146;47.468;18.806;2023-06-22T06:05:15;100353.72;;;23.42;92.26
68301;BME280;55146;47.468;18.806;2023-06-22T06:07:45;100350.94;;;23.54;90.48
68301;BME280;55146;47.468;18.806;2023-06-22T06:10:11;100355.34;;;23.67;91.35
68301;BME280;55146;47.468;18.806;2023-06-22T06:12:37;100349.78;;;23.83;91.18
68301;BME280;55146;47.468;18.806;2023-06-22T06:15:03;100348.19;;;23.97;90.86
68301;BME280;55146;47.468;18.806;2023-06-22T06:17:29;100345.19;;;24.18;90.42
68301;BME280;55146;47.468;18.806;2023-06-22T06:19:55;100344.72;;;24.44;88.37
68301;BME280;55146;47.468;18.806;2023-06-22T06:22:20;100348.59;;;24.71;87.70
68301;BME280;55146;47.468;18.806;2023-06-22T06:24:47;100349.06;;;24.88;80.72
68301;BME280;55146;47.468;18.806;2023-06-22T06:27:13;100338.72;;;25.08;84.12
68301;BME280;55146;47.468;18.806;2023-06-22T06:29:38;100344.19;;;25.36;83.97
68301;BME280;55146;47.468;18.806;2023-06-22T06:32:04;100349.31;;;25.65;83.53
68301;BME280;55146;47.468;18.806;2023-06-22T06:34:29;100346.56;;;25.88;80.78
68301;BME280;55146;47.468;18.806;2023-06-22T06:36:54;100342.91;;;26.07;78.08
68301;BME280;55146;47.468;18.806;2023-06-22T06:39:20;100338.84;;;26.24;78.77
68301;BME280;55146;47.468;18.806;2023-06-22T06:41:45;100336.16;;;26.31;77.83
68301;BME280;55146;47.468;18.806;2023-06-22T06:44:11;100336.75;;;26.40;75.35
68301;BME280;55146;47.468;18.806;2023-06-22T06:46:36;100332.78;;;26.44;75.70
68301;BME280;55146;47.468;18.806;2023-06-22T06:49:03;100332.09;;;26.51;75.63
68301;BME280;55146;47.468;18.806;2023-06-22T06:51:28;100338.13;;;26.72;75.83
68301;BME280;55146;47.468;18.806;2023-06-22T06:53:53;100334.34;;;26.87;73.43
68301;BME280;55146;47.468;18.806;2023-06-22T06:56:19;100332.16;;;27.00;72.83
68301;BME280;55146;47.468;18.806;2023-06-22T06:58:44;100337.75;;;27.23;72.61
68301;BME280;55146;47.468;18.806;2023-06-22T07:01:11;100330.78;;;27.43;72.65
68301;BME280;55146;47.468;18.806;2023-06-22T07:03:37;100326.19;;;27.58;71.75
68301;BME280;55146;47.468;18.806;2023-06-22T07:06:02;100317.94;;;27.79;70.92
68301;BME280;55146;47.468;18.806;2023-06-22T07:08:28;100323.69;;;27.86;68.32
68301;BME280;55146;47.468;18.806;2023-06-22T07:10:54;100321.87;;;28.04;69.74
68301;BME280;55146;47.468;18.806;2023-06-22T07:13:19;100313.69;;;28.29;68.72
68301;BME280;55146;47.468;18.806;2023-06-22T07:15:44;100313.81;;;28.40;65.67
68301;BME280;55146;47.468;18.806;2023-06-22T07:18:10;100309.47;;;28.49;68.08
68301;BME280;55146;47.468;18.806;2023-06-22T07:20:35;100317.59;;;28.54;65.37
68301;BME280;55146;47.468;18.806;2023-06-22T07:23:01;100312.88;;;28.69;64.28
68301;BME280;55146;47.468;18.806;2023-06-22T07:25:26;100313.88;;;28.87;63.40
68301;BME280;55146;47.468;18.806;2023-06-22T07:28:10;100316.38;;;29.00;63.12
68301;BME280;55146;47.468;18.806;2023-06-22T07:30:36;100313.25;;;29.15;62.82
68301;BME280;55146;47.468;18.806;2023-06-22T07:33:02;100320.97;;;29.18;57.85
68301;BME280;55146;47.468;18.806;2023-06-22T07:35:30;100316.59;;;29.31;62.67
68301;BME280;55146;47.468;18.806;2023-06-22T07:37:55;100319.09;;;29.40;64.27
68301;BME280;55146;47.468;18.806;2023-06-22T07:40:20;100325.25;;;29.49;62.52
68301;BME280;55146;47.468;18.806;2023-06-22T07:42:46;100318.78;;;29.56;61.09
68301;BME280;55146;47.468;18.806;2023-06-22T07:45:13;100316.44;;;29.68;58.79
68301;BME280;55146;47.468;18.806;2023-06-22T07:47:39;100313.59;;;29.72;53.27
68301;BME280;55146;47.468;18.806;2023-06-22T07:50:04;100317.25;;;29.72;55.93
68301;BME280;55146;47.468;18.806;2023-06-22T07:52:30;100313.22;;;29.77;57.82
68301;BME280;55146;47.468;18.806;2023-06-22T07:54:56;100307.16;;;29.89;61.05
68301;BME280;55146;47.468;18.806;2023-06-22T07:57:21;100313.75;;;30.04;58.49
68301;BME280;55146;47.468;18.806;2023-06-22T07:59:47;100304.44;;;30.14;57.32
68301;BME280;55146;47.468;18.806;2023-06-22T08:02:12;100304.87;;;30.34;57.95
68301;BME280;55146;47.468;18.806;2023-06-22T08:04:38;100307.75;;;30.48;56.35
68301;BME280;55146;47.468;18.806;2023-06-22T08:07:04;100302.91;;;30.63;55.07
68301;BME280;55146;47.468;18.806;2023-06-22T08:09:30;100307.78;;;30.69;56.37
68301;BME280;55146;47.468;18.806;2023-06-22T08:11:56;100299.28;;;30.80;55.18
68301;BME280;55146;47.468;18.806;2023-06-22T08:14:31;100308.19;;;30.82;56.77
68301;BME280;55146;47.468;18.806;2023-06-22T08:16:56;100304.94;;;30.94;58.85
68301;BME280;55146;47.468;18.806;2023-06-22T08:19:21;100300.06;;;31.02;57.59
68301;BME280;55146;47.468;18.806;2023-06-22T08:21:47;100297.63;;;31.14;53.04
68301;BME280;55146;47.468;18.806;2023-06-22T08:24:12;100298.00;;;31.23;51.34
68301;BME280;55146;47.468;18.806;2023-06-22T08:26:38;100297.19;;;31.33;52.86
68301;BME280;55146;47.468;18.806;2023-06-22T08:29:03;100294.75;;;31.25;48.81
68301;BME280;55146;47.468;18.806;2023-06-22T08:31:30;100294.34;;;31.26;51.83
68301;BME280;55146;47.468;18.806;2023-06-22T08:33:55;100291.50;;;31.33;48.89
68301;BME280;55146;47.468;18.806;2023-06-22T08:36:21;100286.97;;;31.50;54.25
68301;BME280;55146;47.468;18.806;2023-06-22T08:38:46;100284.53;;;31.59;51.27
68301;BME280;55146;47.468;18.806;2023-06-22T08:41:15;100286.09;;;31.74;55.48
68301;BME280;55146;47.468;18.806;2023-06-22T08:43:40;100279.16;;;31.79;51.57
68301;BME280;55146;47.468;18.806;2023-06-22T08:46:07;100271.41;;;31.83;52.28
68301;BME280;55146;47.468;18.806;2023-06-22T08:48:32;100279.44;;;31.99;50.18
68301;BME280;55146;47.468;18.806;2023-06-22T08:50:57;100274.13;;;32.04;48.01
68301;BME280;55146;47.468;18.806;2023-06-22T08:53:23;100275.00;;;31.94;51.50
68301;BME280;55146;47.468;18.806;2023-06-22T08:55:48;100263.97;;;32.07;48.40
68301;BME280;55146;47.468;18.806;2023-06-22T08:58:16;100269.16;;;32.26;55.43
68301;BME280;55146;47.468;18.806;2023-06-22T09:00:41;100263.38;;;32.40;49.86
68301;BME280;55146;47.468;18.806;2023-06-22T09:03:06;100261.59;;;31.95;45.04
68301;BME280;55146;47.468;18.806;2023-06-22T09:05:32;100261.59;;;31.95;52.56
68301;BME280;55146;47.468;18.806;2023-06-22T09:07:57;100262.75;;;32.04;45.49
68301;BME280;55146;47.468;18.806;2023-06-22T09:10:24;100255.44;;;32.03;46.43
68301;BME280;55146;47.468;18.806;2023-06-22T09:12:50;100263.53;;;32.12;47.95
68301;BME280;55146;47.468;18.806;2023-06-22T09:15:15;100254.50;;;32.24;45.44
68301;BME280;55146;47.468;18.806;2023-06-22T09:17:40;100249.94;;;32.37;45.48
68301;BME280;55146;47.468;18.806;2023-06-22T09:20:06;100246.75;;;32.28;44.07
68301;BME280;55146;47.468;18.806;2023-06-22T09:22:33;100247.19;;;32.27;44.70
68301;BME280;55146;47.468;18.806;2023-06-22T09:24:58;100262.16;;;32.38;48.01
68301;BME280;55146;47.468;18.806;2023-06-22T09:27:25;100251.56;;;32.38;47.21
68301;BME280;55146;47.468;18.806;2023-06-22T09:29:50;100238.94;;;32.39;46.93
68301;BME280;55146;47.468;18.806;2023-06-22T09:32:15;100241.75;;;32.43;46.94
68301;BME280;55146;47.468;18.806;2023-06-22T09:34:41;100240.13;;;32.42;45.97
68301;BME280;55146;47.468;18.806;2023-06-22T09:37:06;100240.50;;;32.47;44.69
68301;BME280;55146;47.468;18.806;2023-06-22T09:39:32;100242.91;;;32.52;47.20
68301;BME280;55146;47.468;18.806;2023-06-22T09:42:00;100240.34;;;32.69;45.72
68301;BME280;55146;47.468;18.806;2023-06-22T09:44:25;100229.53;;;32.46;45.61
68301;BME280;55146;47.468;18.806;2023-06-22T09:46:51;100224.91;;;32.59;43.47
68301;BME280;55146;47.468;18.806;2023-06-22T09:49:16;100231.00;;;32.61;45.09
68301;BME280;55146;47.468;18.806;2023-06-22T09:51:42;100237.78;;;32.81;49.10
68301;BME280;55146;47.468;18.806;2023-06-22T09:54:07;100233.41;;;33.11;46.26
68301;BME280;55146;47.468;18.806;2023-06-22T09:56:32;100234.03;;;33.29;45.99
68301;BME280;55146;47.468;18.806;2023-06-22T09:58:58;100233.53;;;33.38;45.26
68301;BME280;55146;47.468;18.806;2023-06-22T10:01:23;100234.53;;;33.54;45.50
68301;BME280;55146;47.468;18.806;2023-06-22T10:03:52;100224.66;;;33.62;44.21
68301;BME280;55146;47.468;18.806;2023-06-22T10:06:19;100231.69;;;33.54;47.83
68301;BME280;55146;47.468;18.806;2023-06-22T10:08:45;100231.09;;;33.36;45.55
68301;BME280;55146;47.468;18.806;2023-06-22T10:11:10;100223.94;;;33.17;50.66
68301;BME280;55146;47.468;18.806;2023-06-22T10:13:36;100226.19;;;33.37;48.70
68301;BME280;55146;47.468;18.806;2023-06-22T10:16:01;100222.72;;;33.52;47.33
68301;BME280;55146;47.468;18.806;2023-06-22T10:18:27;100221.88;;;33.55;45.36
68301;BME280;55146;47.468;18.806;2023-06-22T10:20:52;100224.25;;;33.60;47.73
68301;BME280;55146;47.468;18.806;2023-06-22T10:23:18;100225.66;;;33.79;44.93
68301;BME280;55146;47.468;18.806;2023-06-22T10:25:44;100220.78;;;33.80;46.53
68301;BME280;55146;47.468;18.806;2023-06-22T10:28:09;100223.09;;;33.88;50.01
68301;BME280;55146;47.468;18.806;2023-06-22T10:30:34;100224.81;;;34.09;46.59
68301;BME280;55146;47.468;18.806;2023-06-22T10:33:00;100218.59;;;34.14;47.28
68301;BME280;55146;47.468;18.806;2023-06-22T10:35:25;100216.66;;;34.07;44.56
68301;BME280;55146;47.468;18.806;2023-06-22T10:37:51;100215.22;;;33.96;47.68
68301;BME280;55146;47.468;18.806;2023-06-22T10:40:16;100207.47;;;33.96;46.35
68301;BME280;55146;47.468;18.806;2023-06-22T10:42:44;100211.44;;;34.02;45.17
68301;BME280;55146;47.468;18.806;2023-06-22T10:45:09;100211.66;;;34.15;44.79
68301;BME280;55146;47.468;18.806;2023-06-22T10:47:36;100203.06;;;34.19;43.70
68301;BME280;55146;47.468;18.806;2023-06-22T10:50:02;100199.34;;;34.22;46.56
68301;BME280;55146;47.468;18.806;2023-06-22T10:52:27;100202.75;;;34.13;44.61
68301;BME280;55146;47.468;18.806;2023-06-22T10:54:53;100203.00;;;34.22;46.81
68301;BME280;55146;47.468;18.806;2023-06-22T10:57:18;100207.25;;;34.37;42.75
68301;BME280;55146;47.468;18.806;2023-06-22T10:59:45;100205.44;;;34.47;45.02
68301;BME280;55146;47.468;18.806;2023-06-22T11:02:10;100211.44;;;34.56;46.17
68301;BME280;55146;47.468;18.806;2023-06-22T11:04:35;100204.72;;;34.66;45.05
68301;BME280;55146;47.468;18.806;2023-06-22T11:07:01;100198.09;;;34.73;43.58
68301;BME280;55146;47.468;18.806;2023-06-22T11:09:26;100199.72;;;34.74;42.22
68301;BME280;55146;47.468;18.806;2023-06-22T11:11:52;100202.19;;;34.72;41.07
68301;BME280;55146;47.468;18.806;2023-06-22T11:14:21;100192.38;;;34.69;43.20
68301;BME280;55146;47.468;18.806;2023-06-22T11:16:48;100189.19;;;34.67;43.35
68301;BME280;55146;47.468;18.806;2023-06-22T11:19:13;100192.59;;;34.82;49.17
68301;BME280;55146;47.468;18.806;2023-06-22T11:21:38;100184.31;;;34.87;45.69
68301;BME280;55146;47.468;18.806;2023-06-22T11:24:04;100182.66;;;34.67;43.40
68301;BME280;55146;47.468;18.806;2023-06-22T11:26:30;100181.88;;;34.63;39.90
68301;BME280;55146;47.468;18.806;2023-06-22T11:28:57;100187.50;;;34.46;43.27
68301;BME280;55146;47.468;18.806;2023-06-22T11:31:22;100180.34;;;34.58;45.30
68301;BME280;55146;47.468;18.806;2023-06-22T11:33:48;100180.13;;;34.49;45.05
68301;BME280;55146;47.468;18.806;2023-06-22T11:36:14;100177.19;;;34.53;46.12
68301;BME280;55146;47.468;18.806;2023-06-22T11:38:39;100176.25;;;34.59;46.19
68301;BME280;55146;47.468;18.806;2023-06-22T11:41:06;100169.94;;;34.71;46.79
68301;BME280;55146;47.468;18.806;2023-06-22T11:43:31;100170.53;;;34.82;48.33
68301;BME280;55146;47.468;18.806;2023-06-22T11:45:57;100166.19;;;34.94;48.13
68301;BME280;55146;47.468;18.806;2023-06-22T11:48:24;100161.81;;;34.89;44.88
68301;BME280;55146;47.468;18.806;2023-06-22T11:50:49;100164.00;;;35.02;48.06
68301;BME280;55146;47.468;18.806;2023-06-22T11:53:15;100160.28;;;34.85;43.51
68301;BME280;55146;47.468;18.806;2023-06-22T11:55:46;100161.09;;;34.85;47.42
68301;BME280;55146;47.468;18.806;2023-06-22T11:58:12;100166.66;;;34.93;46.94
68301;BME280;55146;47.468;18.806;2023-06-22T12:00:37;100162.84;;;34.99;43.49
68301;BME280;55146;47.468;18.806;2023-06-22T12:03:03;100160.34;;;35.01;42.84
68301;BME280;55146;47.468;18.806;2023-06-22T12:05:29;100152.00;;;34.90;40.93
68301;BME280;55146;47.468;18.806;2023-06-22T12:07:54;100152.56;;;34.82;46.89
68301;BME280;55146;47.468;18.806;2023-06-22T12:10:22;100153.75;;;34.84;43.20
68301;BME280;55146;47.468;18.806;2023-06-22T12:12:49;100142.16;;;34.92;40.68
68301;BME280;55146;47.468;18.806;2023-06-22T12:15:14;100139.06;;;34.82;43.13
68301;BME280;55146;47.468;18.806;2023-06-22T12:17:40;100134.09;;;34.86;42.93
68301;BME280;55146;47.468;18.806;2023-06-22T12:20:06;100133.72;;;34.84;42.30
68301;BME280;55146;47.468;18.806;2023-06-22T12:22:33;100138.78;;;34.77;43.64
68301;BME280;55146;47.468;18.806;2023-06-22T12:24:59;100136.75;;;34.54;43.56
68301;BME280;55146;47.468;18.806;2023-06-22T12:27:25;100132.56;;;34.59;42.63
68301;BME280;55146;47.468;18.806;2023-06-22T12:29:51;100128.53;;;34.56;42.89
68301;BME280;55146;47.468;18.806;2023-06-22T12:32:16;100126.03;;;34.58;44.24
68301;BME280;55146;47.468;18.806;2023-06-22T12:34:42;100126.41;;;34.60;44.46
68301;BME280;55146;47.468;18.806;2023-06-22T12:37:08;100121.44;;;34.64;45.83
68301;BME280;55146;47.468;18.806;2023-06-22T12:39:33;100117.22;;;34.72;46.17
68301;BME280;55146;47.468;18.806;2023-06-22T12:41:58;100121.56;;;34.57;43.75
68301;BME280;55146;47.468;18.806;2023-06-22T12:44:24;100115.03;;;34.57;44.57
68301;BME280;55146;47.468;18.806;2023-06-22T12:46:49;100117.59;;;34.51;45.43
68301;BME280;55146;47.468;18.806;2023-06-22T12:49:15;100114.94;;;34.40;42.42
68301;BME280;55146;47.468;18.806;2023-06-22T12:51:41;100114.72;;;34.31;44.10